Time;durP1;ratioP1;P1;durP2;ratioP2;P2;SDS_P1;SDS_P2;PMS_P1;PMS_P2;Temp;Humidity;BMP_temperature;BMP_pressure;BME280_temperature;BME280_humidity;BME280_pressure;Samples;Min_cycle;Max_cycle;Signal;HPM_P1;HPM_P2
2022/05/22 00:01:42;;;;;;;0.40;0.40;;;15.70;99.90;;;;;;5030934;28;20319;-64
2022/05/22 00:04:10;;;;;;;0.43;0.43;;;15.60;99.90;;;;;;5031993;28;20205;-64
2022/05/22 00:06:37;;;;;;;0.50;0.50;;;15.40;99.90;;;;;;5031891;28;20232;-63
2022/05/22 00:09:05;;;;;;;0.45;0.45;;;15.10;99.90;;;;;;5031281;28;20240;-63
2022/05/22 00:11:32;;;;;;;0.40;0.40;;;15.00;99.90;;;;;;5029852;28;20231;-64
2022/05/22 00:13:59;;;;;;;0.50;0.50;;;14.90;99.90;;;;;;5032470;28;20300;-64
2022/05/22 00:16:40;;;;;;;0.50;0.50;;;14.80;99.90;;;;;;5039840;28;20235;-63
2022/05/22 00:19:11;;;;;;;0.87;0.60;;;14.80;99.90;;;;;;5033976;28;20215;-63
2022/05/22 00:21:38;;;;;;;0.50;0.50;;;14.80;99.90;;;;;;5034124;28;20610;-64
2022/05/22 00:24:06;;;;;;;0.68;0.68;;;14.80;99.90;;;;;;5032025;28;20236;-64
2022/05/22 00:26:33;;;;;;;0.70;0.63;;;14.80;99.90;;;;;;5031714;28;20205;-63
2022/05/22 00:29:01;;;;;;;0.93;0.60;;;14.90;99.90;;;;;;5031962;28;20272;-63
2022/05/22 00:31:28;;;;;;;0.50;0.50;;;14.90;99.90;;;;;;5030790;28;20221;-63
2022/05/22 00:33:55;;;;;;;0.47;0.47;;;14.90;99.90;;;;;;5031876;28;20303;-63
2022/05/22 00:36:24;;;;;;;0.50;0.50;;;14.90;99.90;;;;;;5031506;28;20262;-64
2022/05/22 00:38:51;;;;;;;0.68;0.68;;;14.80;99.90;;;;;;5031370;28;20204;-64
2022/05/22 00:41:18;;;;;;;0.57;0.57;;;14.80;99.90;;;;;;5028086;28;20307;-65
2022/05/22 00:43:47;;;;;;;0.50;0.50;;;14.70;99.90;;;;;;5023874;28;20281;-63
2022/05/22 00:46:16;;;;;;;0.38;0.38;;;14.60;99.90;;;;;;5031660;28;20208;-63
2022/05/22 00:48:45;;;;;;;0.40;0.40;;;14.50;99.90;;;;;;5026551;28;20300;-64
2022/05/22 00:51:16;;;;;;;0.40;0.40;;;14.50;99.90;;;;;;5030688;28;20278;-62
2022/05/22 00:53:49;;;;;;;0.65;0.65;;;14.50;99.90;;;;;;5029699;28;20268;-65
2022/05/22 00:56:24;;;;;;;0.60;0.60;;;14.40;99.90;;;;;;5026059;28;20215;-65
2022/05/22 00:58:54;;;;;;;0.50;0.50;;;14.20;99.90;;;;;;5030763;28;20287;-64
2022/05/22 01:01:21;;;;;;;0.55;0.55;;;14.20;99.90;;;;;;5034822;28;20307;-64
2022/05/22 01:03:49;;;;;;;0.60;0.60;;;14.20;99.90;;;;;;5029697;28;20208;-62
2022/05/22 01:06:19;;;;;;;0.65;0.57;;;14.40;99.90;;;;;;5034263;28;20208;-65
2022/05/22 01:08:48;;;;;;;0.63;0.63;;;14.20;99.90;;;;;;5037252;28;20629;-64
2022/05/22 01:11:22;;;;;;;0.50;0.50;;;14.10;99.90;;;;;;5032100;28;20220;-63
2022/05/22 01:13:53;;;;;;;1.00;0.43;;;14.10;99.90;;;;;;5031339;28;20232;-66
2022/05/22 01:16:20;;;;;;;0.30;0.30;;;14.10;99.90;;;;;;5031521;28;20205;-62
2022/05/22 01:18:49;;;;;;;0.82;0.82;;;14.00;99.90;;;;;;5031738;28;20212;-63
2022/05/22 01:21:20;;;;;;;0.40;0.40;;;14.10;99.90;;;;;;5034575;28;20319;-63
2022/05/22 01:23:49;;;;;;;0.40;0.40;;;14.00;99.90;;;;;;5035393;28;20283;-62
2022/05/22 01:26:16;;;;;;;0.50;0.50;;;13.90;99.90;;;;;;5035197;28;20212;-63
2022/05/22 01:28:42;;;;;;;0.57;0.57;;;13.80;99.90;;;;;;5034726;28;20205;-63
2022/05/22 01:31:10;;;;;;;0.50;0.50;;;13.70;99.90;;;;;;5034309;28;20274;-63
2022/05/22 01:33:39;;;;;;;0.57;0.57;;;13.70;99.90;;;;;;5034083;28;20204;-64
2022/05/22 01:36:07;;;;;;;0.50;0.50;;;13.80;99.90;;;;;;5030776;28;20216;-65
2022/05/22 01:38:35;;;;;;;0.68;0.68;;;13.80;99.90;;;;;;5034626;28;20213;-65
2022/05/22 01:41:04;;;;;;;0.50;0.50;;;13.80;99.90;;;;;;5033627;28;20236;-64
2022/05/22 01:43:31;;;;;;;0.60;0.60;;;13.80;99.90;;;;;;5033896;28;20247;-63
2022/05/22 01:45:58;;;;;;;0.70;0.70;;;13.60;99.90;;;;;;5033907;28;20215;-64
2022/05/22 01:48:25;;;;;;;0.50;0.50;;;13.50;99.90;;;;;;5034404;28;20295;-64
2022/05/22 01:50:53;;;;;;;0.52;0.52;;;13.50;99.90;;;;;;5033799;28;20238;-66
2022/05/22 01:53:21;;;;;;;0.60;0.60;;;13.50;99.90;;;;;;5049233;22;20237;-66
2022/05/22 01:55:50;;;;;;;0.50;0.50;;;13.50;99.90;;;;;;5015111;28;20680;-66
2022/05/22 01:58:19;;;;;;;0.60;0.60;;;13.50;99.90;;;;;;5015200;28;20254;-66
2022/05/22 02:00:46;;;;;;;0.60;0.60;;;13.50;99.90;;;;;;5015375;28;20830;-65
2022/05/22 02:03:13;;;;;;;0.60;0.60;;;13.50;99.90;;;;;;5014463;28;20593;-66
2022/05/22 02:05:43;;;;;;;0.50;0.50;;;13.50;99.90;;;;;;5015549;28;20671;-66
2022/05/22 02:08:24;;;;;;;0.50;0.50;;;13.50;99.90;;;;;;5014934;28;20243;-67
2022/05/22 02:10:55;;;;;;;0.50;0.50;;;13.60;99.90;;;;;;5013942;28;20208;-67
2022/05/22 02:13:26;;;;;;;0.73;0.68;;;13.60;99.90;;;;;;5014312;28;20233;-66
2022/05/22 02:15:53;;;;;;;0.60;0.60;;;13.60;99.90;;;;;;5013899;28;20209;-67
2022/05/22 02:18:20;;;;;;;0.47;0.47;;;13.60;99.90;;;;;;5015593;28;20205;-65
2022/05/22 02:20:48;;;;;;;0.38;0.38;;;13.70;99.90;;;;;;5016162;28;20293;-65
2022/05/22 02:23:15;;;;;;;0.40;0.40;;;13.60;99.90;;;;;;5017047;28;20225;-66
2022/05/22 02:25:45;;;;;;;0.70;0.70;;;13.60;99.90;;;;;;5022834;28;20274;-66
2022/05/22 02:28:14;;;;;;;0.50;0.50;;;13.70;99.90;;;;;;5024398;28;20252;-66
2022/05/22 02:30:46;;;;;;;0.45;0.45;;;13.60;99.90;;;;;;5017771;28;20215;-67
2022/05/22 02:33:12;;;;;;;0.40;0.40;;;13.50;99.90;;;;;;5016414;28;20324;-66
2022/05/22 02:35:40;;;;;;;0.85;0.85;;;13.50;99.90;;;;;;5019169;28;20211;-66
2022/05/22 02:38:07;;;;;;;0.57;0.57;;;13.50;99.90;;;;;;5019227;28;20218;-64
2022/05/22 02:40:35;;;;;;;0.40;0.40;;;13.50;99.90;;;;;;5013420;28;20241;-65
2022/05/22 02:43:02;;;;;;;0.40;0.40;;;13.50;99.90;;;;;;5014008;28;20225;-66
2022/05/22 02:45:31;;;;;;;0.43;0.40;;;13.50;99.90;;;;;;5014707;28;20237;-66
2022/05/22 02:48:00;;;;;;;0.60;0.60;;;13.50;99.90;;;;;;5014268;28;20687;-65
2022/05/22 02:50:29;;;;;;;0.50;0.50;;;13.40;99.90;;;;;;5018706;28;20552;-65
2022/05/22 02:52:56;;;;;;;0.50;0.50;;;13.40;99.90;;;;;;5032831;28;20236;-67
2022/05/22 02:55:24;;;;;;;0.50;0.50;;;13.30;99.90;;;;;;5020893;28;20675;-67
2022/05/22 02:57:50;;;;;;;0.60;0.60;;;13.20;99.90;;;;;;5013950;28;20211;-68
2022/05/22 03:00:21;;;;;;;0.35;0.35;;;13.10;99.90;;;;;;5014022;28;20244;-65
2022/05/22 03:02:48;;;;;;;0.40;0.40;;;13.00;99.90;;;;;;5013290;28;20332;-67
2022/05/22 03:05:16;;;;;;;0.67;0.60;;;13.00;99.90;;;;;;5014083;28;20292;-66
2022/05/22 03:07:43;;;;;;;0.40;0.40;;;13.00;99.90;;;;;;5013801;28;20763;-65
2022/05/22 03:10:12;;;;;;;0.55;0.55;;;13.00;99.90;;;;;;5013813;28;20240;-67
2022/05/22 03:12:40;;;;;;;0.70;0.70;;;13.10;99.90;;;;;;5011455;28;20743;-65
2022/05/22 03:15:09;;;;;;;2.17;0.50;;;13.20;99.90;;;;;;5013453;28;20217;-65
2022/05/22 03:17:36;;;;;;;1.08;0.70;;;13.10;99.90;;;;;;5013211;28;20209;-65
2022/05/22 03:20:04;;;;;;;1.40;0.70;;;13.00;99.90;;;;;;5013250;28;20241;-65
2022/05/22 03:22:32;;;;;;;0.47;0.47;;;12.90;99.90;;;;;;5012617;28;20240;-66
2022/05/22 03:24:59;;;;;;;0.40;0.40;;;12.80;99.90;;;;;;5013145;28;20209;-66
2022/05/22 03:27:26;;;;;;;0.52;0.52;;;12.70;99.90;;;;;;5013344;28;20205;-67
2022/05/22 03:29:53;;;;;;;0.53;0.50;;;12.70;99.90;;;;;;5013521;28;20213;-66
2022/05/22 03:32:20;;;;;;;0.95;0.70;;;12.70;99.90;;;;;;5012735;28;20311;-66
2022/05/22 03:34:48;;;;;;;0.60;0.60;;;12.80;99.90;;;;;;5013472;28;20244;-67
2022/05/22 03:37:15;;;;;;;0.60;0.60;;;13.00;99.90;;;;;;5014407;28;20202;-67
2022/05/22 03:39:43;;;;;;;0.60;0.60;;;13.20;99.90;;;;;;5013401;28;20205;-65
2022/05/22 03:42:11;;;;;;;0.50;0.50;;;13.20;99.90;;;;;;5010965;28;20231;-66
2022/05/22 03:44:38;;;;;;;0.45;0.45;;;13.10;99.90;;;;;;5012822;28;20622;-65
2022/05/22 03:47:06;;;;;;;0.80;0.80;;;13.20;99.90;;;;;;5013444;28;20244;-64
2022/05/22 03:49:33;;;;;;;0.60;0.60;;;13.90;99.90;;;;;;5015144;28;20250;-65
2022/05/22 03:52:00;;;;;;;0.65;0.65;;;14.80;99.90;;;;;;5031868;28;20247;-63
2022/05/22 03:54:27;;;;;;;1.17;0.70;;;15.10;99.90;;;;;;5034676;28;20239;-65
2022/05/22 03:56:56;;;;;;;0.50;0.50;;;15.40;99.90;;;;;;5033218;28;20251;-64
2022/05/22 03:59:24;;;;;;;0.60;0.60;;;15.70;99.90;;;;;;5032831;28;20208;-65
2022/05/22 04:01:51;;;;;;;0.50;0.50;;;15.90;99.90;;;;;;5032712;28;20319;-66
2022/05/22 04:04:18;;;;;;;0.57;0.57;;;16.10;99.90;;;;;;5033247;28;20316;-65
2022/05/22 04:06:45;;;;;;;0.57;0.57;;;16.10;99.90;;;;;;5025995;28;20288;-65
2022/05/22 04:09:12;;;;;;;0.60;0.60;;;16.20;99.90;;;;;;5017202;28;20628;-65
2022/05/22 04:11:41;;;;;;;0.60;0.60;;;16.30;99.90;;;;;;5017177;28;20273;-63
2022/05/22 04:14:10;;;;;;;0.43;0.43;;;16.50;99.90;;;;;;5017721;28;20236;-64
2022/05/22 04:16:37;;;;;;;1.05;0.60;;;16.60;99.90;;;;;;5019392;28;20643;-65
2022/05/22 04:19:04;;;;;;;0.50;0.50;;;16.60;99.90;;;;;;5019989;28;20287;-64
2022/05/22 04:21:31;;;;;;;0.50;0.50;;;16.60;99.90;;;;;;5028353;28;20278;-65
2022/05/22 04:26:42;;;;;;;1.13;1.10;;;16.60;99.90;;;;;;5014751;28;20289;-64
2022/05/22 04:29:10;;;;;;;3.90;1.00;;;16.50;99.90;;;;;;5013327;28;20299;-65
2022/05/22 04:31:37;;;;;;;3.83;1.17;;;16.40;99.90;;;;;;5012018;28;20240;-64
2022/05/22 04:34:04;;;;;;;2.92;0.77;;;16.80;99.90;;;;;;5012473;28;20313;-64
2022/05/22 04:36:31;;;;;;;0.45;0.45;;;17.00;99.90;;;;;;5012904;28;20233;-65
2022/05/22 04:38:58;;;;;;;0.40;0.40;;;17.00;99.90;;;;;;5011935;28;20244;-65
2022/05/22 04:41:25;;;;;;;0.70;0.70;;;17.10;99.90;;;;;;5011021;28;20258;-66
2022/05/22 04:43:51;;;;;;;0.60;0.60;;;17.10;99.90;;;;;;5012496;28;20308;-64
2022/05/22 04:46:20;;;;;;;0.60;0.60;;;17.10;99.90;;;;;;5012780;28;20276;-64
2022/05/22 04:48:47;;;;;;;0.75;0.73;;;17.10;99.90;;;;;;5012881;28;20300;-66
2022/05/22 04:51:14;;;;;;;0.80;0.80;;;17.10;99.90;;;;;;5023289;28;20295;-61
2022/05/22 04:53:41;;;;;;;0.43;0.43;;;17.10;99.90;;;;;;5032894;28;20229;-64
2022/05/22 04:56:08;;;;;;;0.50;0.50;;;17.10;99.90;;;;;;5037054;28;20207;-66
2022/05/22 04:58:34;;;;;;;0.55;0.55;;;17.10;99.90;;;;;;5040586;28;20291;-66
2022/05/22 05:01:06;;;;;;;2.07;0.90;;;17.00;99.90;;;;;;5036404;28;21055;-65
2022/05/22 05:03:34;;;;;;;0.77;0.77;;;17.10;99.90;;;;;;5020777;28;20229;-64
2022/05/22 05:06:02;;;;;;;0.60;0.60;;;17.10;99.90;;;;;;5016391;28;20241;-66
2022/05/22 05:08:29;;;;;;;0.47;0.47;;;17.00;99.90;;;;;;5016028;28;20240;-65
2022/05/22 05:10:57;;;;;;;0.40;0.40;;;16.90;99.90;;;;;;5015642;28;20259;-64
2022/05/22 05:13:24;;;;;;;0.70;0.70;;;17.00;99.90;;;;;;5014145;28;20312;-65
2022/05/22 05:16:03;;;;;;;0.60;0.60;;;17.30;99.90;;;;;;5015742;28;20207;-63
2022/05/22 05:18:30;;;;;;;0.57;0.57;;;17.40;99.90;;;;;;5015451;28;20197;-67
2022/05/22 05:21:02;;;;;;;0.65;0.60;;;17.40;99.90;;;;;;5015318;28;20296;-65
2022/05/22 05:23:29;;;;;;;0.60;0.60;;;17.60;99.90;;;;;;5014789;28;20233;-62
2022/05/22 05:25:56;;;;;;;0.60;0.60;;;17.70;99.90;;;;;;5015823;28;20260;-64
2022/05/22 05:28:23;;;;;;;0.57;0.57;;;17.80;99.90;;;;;;5015819;28;20240;-66
2022/05/22 05:30:50;;;;;;;0.43;0.43;;;17.90;99.90;;;;;;5015281;28;20292;-66
2022/05/22 05:33:17;;;;;;;0.50;0.50;;;18.00;99.90;;;;;;5014774;28;20283;-63
2022/05/22 05:35:44;;;;;;;0.60;0.60;;;18.10;99.90;;;;;;5015379;28;20280;-66
2022/05/22 05:38:13;;;;;;;0.60;0.60;;;18.30;99.90;;;;;;5015544;28;20621;-63
2022/05/22 05:40:40;;;;;;;0.50;0.50;;;18.40;99.90;;;;;;5015352;28;20292;-65
2022/05/22 05:43:08;;;;;;;0.40;0.40;;;18.40;99.90;;;;;;5014233;28;20259;-64
2022/05/22 05:45:35;;;;;;;0.40;0.40;;;18.60;99.90;;;;;;5017566;28;20193;-65
2022/05/22 05:48:02;;;;;;;0.40;0.40;;;18.70;99.90;;;;;;5018221;28;20209;-64
2022/05/22 05:50:29;;;;;;;0.40;0.40;;;18.80;99.90;;;;;;5026684;28;20232;-65
2022/05/22 05:52:57;;;;;;;0.65;0.65;;;18.90;99.90;;;;;;5030759;28;20221;-64
2022/05/22 05:55:26;;;;;;;0.52;0.52;;;19.00;99.90;;;;;;5031244;28;20232;-65
2022/05/22 05:57:53;;;;;;;0.90;0.50;;;18.90;99.90;;;;;;5030786;28;20255;-65
2022/05/22 06:00:23;;;;;;;0.60;0.60;;;18.90;99.90;;;;;;5016952;28;20292;-65
2022/05/22 06:02:50;;;;;;;0.45;0.45;;;18.80;99.90;;;;;;5015816;28;20359;-65
2022/05/22 06:05:18;;;;;;;0.60;0.60;;;19.00;99.90;;;;;;5017353;28;20232;-64
2022/05/22 06:07:50;;;;;;;0.60;0.60;;;19.20;99.90;;;;;;5017486;28;20288;-64
2022/05/22 06:10:17;;;;;;;0.60;0.60;;;19.40;99.90;;;;;;5016636;28;20194;-64
2022/05/22 06:12:46;;;;;;;0.80;0.80;;;19.40;99.90;;;;;;5015145;28;20226;-64
2022/05/22 06:15:13;;;;;;;0.60;0.60;;;19.20;99.90;;;;;;5017930;28;20227;-64
2022/05/22 06:17:44;;;;;;;0.60;0.60;;;19.00;99.90;;;;;;5016403;28;20240;-64
2022/05/22 06:20:14;;;;;;;0.55;0.55;;;19.10;99.90;;;;;;5014703;28;20209;-63
2022/05/22 06:22:42;;;;;;;0.52;0.52;;;19.20;99.90;;;;;;5014050;28;20241;-65
2022/05/22 06:25:11;;;;;;;0.70;0.70;;;19.10;99.90;;;;;;5015573;28;20232;-64
2022/05/22 06:27:38;;;;;;;0.60;0.60;;;19.10;99.90;;;;;;5015297;28;20288;-66
2022/05/22 06:30:08;;;;;;;0.57;0.57;;;19.10;99.90;;;;;;5014324;28;20296;-65
2022/05/22 06:32:35;;;;;;;0.70;0.70;;;19.20;99.90;;;;;;5012891;28;20217;-64
2022/05/22 06:35:02;;;;;;;1.08;0.73;;;19.40;99.90;;;;;;5014493;28;20292;-63
2022/05/22 06:37:29;;;;;;;0.63;0.63;;;19.40;99.90;;;;;;5014503;28;20264;-64
2022/05/22 06:39:55;;;;;;;0.60;0.60;;;19.60;99.90;;;;;;5014334;28;20206;-65
2022/05/22 06:42:28;;;;;;;0.73;0.73;;;19.70;99.90;;;;;;5012980;28;20227;-64
2022/05/22 06:44:57;;;;;;;0.70;0.70;;;19.60;99.90;;;;;;5014085;28;20894;-64
2022/05/22 06:47:29;;;;;;;0.57;0.57;;;19.70;99.90;;;;;;5016469;28;20205;-63
2022/05/22 06:49:57;;;;;;;0.90;0.90;;;19.70;99.90;;;;;;5014720;28;20232;-68
2022/05/22 06:52:25;;;;;;;0.80;0.80;;;19.80;99.90;;;;;;5013783;28;20234;-68
2022/05/22 06:54:52;;;;;;;0.60;0.60;;;19.90;99.90;;;;;;5014341;28;20224;-67
2022/05/22 06:57:21;;;;;;;0.88;0.88;;;20.00;99.90;;;;;;5014893;28;20296;-65
2022/05/22 06:59:48;;;;;;;0.60;0.60;;;19.90;99.90;;;;;;5013645;28;20217;-67
2022/05/22 07:02:16;;;;;;;1.10;1.00;;;19.80;99.90;;;;;;5010517;28;20313;-67
2022/05/22 07:04:45;;;;;;;0.70;0.70;;;19.90;99.90;;;;;;5015295;28;20213;-67
2022/05/22 07:07:12;;;;;;;0.70;0.70;;;19.90;99.90;;;;;;5018054;28;20234;-66
2022/05/22 07:09:39;;;;;;;0.60;0.60;;;20.00;99.90;;;;;;5020402;28;20206;-68
2022/05/22 07:12:08;;;;;;;0.90;0.90;;;20.10;99.90;;;;;;5018326;28;20197;-67
2022/05/22 07:14:36;;;;;;;1.13;0.90;;;20.00;99.90;;;;;;5016773;28;20255;-67
2022/05/22 07:17:04;;;;;;;0.70;0.70;;;20.10;99.90;;;;;;5014065;28;20209;-67
2022/05/22 07:19:34;;;;;;;0.80;0.80;;;20.30;99.90;;;;;;5018999;28;20261;-68
2022/05/22 07:22:03;;;;;;;0.65;0.65;;;20.40;99.90;;;;;;5018963;28;20237;-66
2022/05/22 07:24:30;;;;;;;0.73;0.73;;;20.40;99.90;;;;;;5016068;28;20222;-66
2022/05/22 07:26:57;;;;;;;0.80;0.80;;;20.60;99.90;;;;;;5017010;28;20236;-66
2022/05/22 07:29:24;;;;;;;0.80;0.80;;;20.70;99.90;;;;;;5013717;28;20296;-66
2022/05/22 07:31:51;;;;;;;0.60;0.60;;;20.80;99.90;;;;;;5016220;28;20210;-68
2022/05/22 07:34:18;;;;;;;1.13;0.70;;;20.60;99.90;;;;;;5016140;28;20239;-65
2022/05/22 07:36:45;;;;;;;0.70;0.70;;;20.30;99.90;;;;;;5012360;28;20209;-66
2022/05/22 07:39:13;;;;;;;0.63;0.63;;;20.30;99.90;;;;;;5013685;28;20288;-66
2022/05/22 07:41:40;;;;;;;0.80;0.80;;;20.40;99.90;;;;;;5012493;28;20209;-66
2022/05/22 07:44:07;;;;;;;0.80;0.80;;;20.60;99.90;;;;;;5027679;28;20323;-65
2022/05/22 07:46:34;;;;;;;0.80;0.80;;;20.60;99.90;;;;;;5033203;28;20296;-65
2022/05/22 07:49:01;;;;;;;0.82;0.82;;;20.60;99.90;;;;;;5033064;28;20204;-66
2022/05/22 07:51:28;;;;;;;1.00;1.00;;;20.80;99.90;;;;;;5027008;28;20209;-65
2022/05/22 07:53:55;;;;;;;0.85;0.85;;;21.00;99.90;;;;;;5023445;28;20769;-66
2022/05/22 07:56:23;;;;;;;0.82;0.82;;;21.10;99.90;;;;;;5024742;28;20585;-65
2022/05/22 07:58:51;;;;;;;0.80;0.80;;;21.10;99.90;;;;;;5031319;28;20205;-66
2022/05/22 08:01:18;;;;;;;1.38;1.10;;;21.10;99.90;;;;;;5029026;28;20198;-67
2022/05/22 08:03:45;;;;;;;1.00;1.00;;;21.20;99.90;;;;;;5020841;28;20320;-66
2022/05/22 08:06:13;;;;;;;0.95;0.95;;;21.20;99.90;;;;;;5017606;28;20247;-67
2022/05/22 08:08:40;;;;;;;1.02;1.02;;;21.30;99.90;;;;;;5014751;28;20245;-67
2022/05/22 08:11:07;;;;;;;1.15;1.00;;;21.40;99.90;;;;;;5013801;28;20209;-66
2022/05/22 08:13:35;;;;;;;1.10;1.10;;;21.50;99.90;;;;;;5010962;28;20310;-65
2022/05/22 08:16:02;;;;;;;1.00;1.00;;;21.60;99.90;;;;;;5012346;28;20553;-68
2022/05/22 08:18:29;;;;;;;0.85;0.85;;;21.80;99.90;;;;;;5012031;28;20201;-66
2022/05/22 08:20:56;;;;;;;0.70;0.70;;;21.90;99.90;;;;;;5011504;28;20273;-66
2022/05/22 08:23:24;;;;;;;0.70;0.70;;;21.90;99.90;;;;;;5009861;28;20225;-66
2022/05/22 08:25:51;;;;;;;0.50;0.50;;;22.00;99.90;;;;;;5012489;28;20202;-66
2022/05/22 08:28:19;;;;;;;0.52;0.52;;;21.80;99.90;;;;;;5011359;28;20259;-66
2022/05/22 08:30:48;;;;;;;0.63;0.60;;;22.00;99.90;;;;;;5011471;28;20285;-67
2022/05/22 08:33:15;;;;;;;0.65;0.65;;;22.20;99.90;;;;;;5011041;28;20300;-66
2022/05/22 08:35:44;;;;;;;0.52;0.52;;;22.40;99.90;;;;;;5012485;28;20712;-68
2022/05/22 08:38:12;;;;;;;0.73;0.73;;;22.50;99.90;;;;;;5009750;28;20232;-67
2022/05/22 08:40:51;;;;;;;1.13;0.75;;;22.60;99.90;;;;;;5011117;28;20219;-68
2022/05/22 08:43:27;;;;;;;0.70;0.70;;;22.80;99.90;;;;;;5010560;28;20229;-67
2022/05/22 08:46:03;;;;;;;0.60;0.60;;;22.90;99.90;;;;;;5012291;28;20208;-67
2022/05/22 08:48:33;;;;;;;0.50;0.50;;;22.90;99.90;;;;;;5010677;28;20201;-66
2022/05/22 08:51:01;;;;;;;0.60;0.60;;;22.90;99.90;;;;;;5011882;28;20650;-66
2022/05/22 08:53:35;;;;;;;0.70;0.70;;;22.90;99.90;;;;;;5011143;28;20287;-65
2022/05/22 08:58:57;;;;;;;0.80;0.80;;;23.00;99.90;;;;;;5014196;28;20223;-67
2022/05/22 09:01:38;;;;;;;0.47;0.47;;;23.20;99.90;;;;;;5011128;28;20288;-67
2022/05/22 09:04:12;;;;;;;0.80;0.70;;;23.40;99.90;;;;;;5010893;28;20308;-66
2022/05/22 09:06:45;;;;;;;0.60;0.60;;;23.60;99.90;;;;;;5014510;28;20281;-66
2022/05/22 09:09:13;;;;;;;0.75;0.75;;;23.60;99.90;;;;;;5018886;28;20243;-67
2022/05/22 09:11:52;;;;;;;0.63;0.63;;;23.60;99.90;;;;;;5012981;28;20190;-67
2022/05/22 09:14:24;;;;;;;0.70;0.70;;;23.50;99.90;;;;;;5013232;28;20275;-67
2022/05/22 09:16:59;;;;;;;0.57;0.57;;;23.60;99.90;;;;;;5010780;28;20297;-67
2022/05/22 09:19:33;;;;;;;0.60;0.60;;;23.60;99.90;;;;;;5016828;28;20212;-68
2022/05/22 09:22:18;;;;;;;0.70;0.70;;;23.80;99.90;;;;;;5015952;28;20615;-68
2022/05/22 09:24:55;;;;;;;0.57;0.57;;;23.70;99.90;;;;;;5016303;28;20218;-68
2022/05/22 09:27:30;;;;;;;0.60;0.60;;;23.80;99.90;;;;;;5018998;28;20225;-67
2022/05/22 09:30:04;;;;;;;1.85;0.80;;;24.00;99.90;;;;;;5019464;28;20205;-68
2022/05/22 09:32:47;;;;;;;0.75;0.75;;;24.20;99.90;;;;;;5013685;28;20204;-68
2022/05/22 09:35:22;;;;;;;0.60;0.60;;;24.20;99.90;;;;;;5010928;28;20209;-68
2022/05/22 09:38:04;;;;;;;0.75;0.75;;;24.40;99.90;;;;;;5008707;28;20274;-66
2022/05/22 09:40:39;;;;;;;0.50;0.50;;;24.40;99.90;;;;;;5011192;28;20205;-67
2022/05/22 09:43:45;;;;;;;0.57;0.57;;;24.30;99.90;;;;;;5011135;28;20320;-68
2022/05/22 09:46:27;;;;;;;0.60;0.60;;;24.40;99.90;;;;;;5008249;28;20253;-68
2022/05/22 09:49:10;;;;;;;0.40;0.40;;;24.40;99.90;;;;;;5013882;28;20755;-68
2022/05/22 09:51:46;;;;;;;0.70;0.70;;;24.40;99.90;;;;;;5017733;28;20213;-67
2022/05/22 09:54:33;;;;;;;0.70;0.70;;;24.70;99.90;;;;;;5014793;28;20249;-68
2022/05/22 09:57:09;;;;;;;0.82;0.82;;;24.80;99.90;;;;;;5012608;28;20296;-67
2022/05/22 09:59:52;;;;;;;0.77;0.77;;;25.00;99.90;;;;;;5013875;28;20272;-69
2022/05/22 10:02:24;;;;;;;0.57;0.57;;;24.90;99.90;;;;;;5013909;28;20648;-68
2022/05/22 10:05:04;;;;;;;0.60;0.60;;;25.00;99.90;;;;;;5011623;28;20320;-69
2022/05/22 10:07:39;;;;;;;0.73;0.73;;;25.10;99.90;;;;;;5011667;28;20248;-68
2022/05/22 10:10:13;;;;;;;0.70;0.70;;;25.00;99.90;;;;;;5019407;28;20287;-67
2022/05/22 10:12:53;;;;;;;0.40;0.40;;;25.10;99.90;;;;;;5004731;28;20631;-68
2022/05/22 10:15:32;;;;;;;0.70;0.70;;;25.10;99.90;;;;;;5012721;28;20232;-67
2022/05/22 10:18:10;;;;;;;0.70;0.70;;;25.20;99.90;;;;;;5016435;28;20209;-67
2022/05/22 10:20:48;;;;;;;0.63;0.63;;;25.00;99.90;;;;;;5023414;28;20223;-69
2022/05/22 10:23:24;;;;;;;0.70;0.70;;;24.80;99.90;;;;;;5037197;28;20235;-69
2022/05/22 10:26:00;;;;;;;0.63;0.63;;;24.80;99.90;;;;;;5039079;28;20208;-69
2022/05/22 10:28:33;;;;;;;0.60;0.60;;;24.50;99.90;;;;;;5036736;28;20232;-69
2022/05/22 10:31:07;;;;;;;0.70;0.70;;;24.60;99.90;;;;;;5027727;28;20292;-69
2022/05/22 10:33:38;;;;;;;0.70;0.70;;;24.70;99.90;;;;;;5017796;28;20307;-68
2022/05/22 10:36:11;;;;;;;0.80;0.80;;;24.70;99.90;;;;;;5018383;28;20685;-67
2022/05/22 10:38:42;;;;;;;0.55;0.55;;;25.00;99.90;;;;;;5020182;28;20201;-68
2022/05/22 10:44:08;;;;;;;0.80;0.80;;;24.70;99.90;;;;;;5019062;28;20232;-69
2022/05/22 10:46:46;;;;;;;0.73;0.73;;;24.90;99.90;;;;;;5030911;28;20201;-67
2022/05/22 10:49:13;;;;;;;0.63;0.63;;;25.00;99.90;;;;;;5027117;28;20204;-69
2022/05/22 10:51:42;;;;;;;0.70;0.70;;;24.80;99.90;;;;;;5010518;28;20577;-69
2022/05/22 10:54:09;;;;;;;0.60;0.60;;;25.00;99.90;;;;;;5011365;28;20347;-66
2022/05/22 10:56:36;;;;;;;0.73;0.73;;;25.20;99.90;;;;;;5012585;28;20292;-67
2022/05/22 10:59:05;;;;;;;0.55;0.55;;;25.30;99.90;;;;;;5012778;28;20205;-66
2022/05/22 11:01:35;;;;;;;0.60;0.60;;;24.90;99.90;;;;;;5011191;28;20271;-67
2022/05/22 11:04:05;;;;;;;0.77;0.77;;;25.00;99.90;;;;;;5013833;28;20275;-67
2022/05/22 11:06:33;;;;;;;0.70;0.70;;;25.20;99.90;;;;;;5014280;28;20197;-67
2022/05/22 11:09:02;;;;;;;0.70;0.70;;;25.30;99.90;;;;;;5015088;28;20201;-67
2022/05/22 11:11:30;;;;;;;0.63;0.63;;;25.30;99.90;;;;;;5012145;28;20237;-68
2022/05/22 11:14:07;;;;;;;0.70;0.70;;;25.30;99.90;;;;;;5012022;28;20224;-68
2022/05/22 11:16:34;;;;;;;0.60;0.60;;;25.40;99.90;;;;;;5017401;28;20203;-68
2022/05/22 11:19:07;;;;;;;0.70;0.70;;;25.30;99.90;;;;;;5019736;28;20259;-67
2022/05/22 11:21:41;;;;;;;0.63;0.63;;;25.60;99.90;;;;;;5024089;28;20228;-69
2022/05/22 11:24:30;;;;;;;0.55;0.55;;;25.70;99.90;;;;;;5027295;28;20240;-69
2022/05/22 11:27:07;;;;;;;0.70;0.70;;;25.90;99.90;;;;;;5027638;28;20224;-66
2022/05/22 11:30:03;;;;;;;0.70;0.70;;;25.90;99.90;;;;;;5019647;28;20201;-67
2022/05/22 11:32:49;;;;;;;0.63;0.63;;;25.90;99.90;;;;;;5010507;28;20301;-69
2022/05/22 11:35:32;;;;;;;0.68;0.68;;;25.90;99.90;;;;;;5015747;28;20197;-65
2022/05/22 11:38:22;;;;;;;0.75;0.75;;;25.90;99.90;;;;;;5013150;28;20231;-65
2022/05/22 11:40:59;;;;;;;0.60;0.60;;;25.70;99.90;;;;;;5007864;28;20280;-68
2022/05/22 11:43:45;;;;;;;0.60;0.60;;;25.60;99.90;;;;;;5011026;28;20739;-66
2022/05/22 11:46:17;;;;;;;0.50;0.50;;;25.60;99.90;;;;;;5009133;28;20204;-67
2022/05/22 11:49:03;;;;;;;0.80;0.80;;;25.80;99.90;;;;;;5007600;28;20636;-67
2022/05/22 11:51:52;;;;;;;1.42;0.63;;;26.00;99.90;;;;;;5011895;28;20324;-66
2022/05/22 11:54:34;;;;;;;0.60;0.60;;;26.00;99.90;;;;;;5010685;28;20596;-67
2022/05/22 11:57:27;;;;;;;0.60;0.60;;;26.10;99.90;;;;;;5011519;28;20271;-66
2022/05/22 12:00:15;;;;;;;0.50;0.50;;;26.20;99.90;;;;;;5010351;28;20948;-66
2022/05/22 12:03:10;;;;;;;0.93;0.85;;;26.40;99.90;;;;;;5010258;28;20591;-67
2022/05/22 12:05:48;;;;;;;0.60;0.60;;;26.40;99.90;;;;;;5011023;28;20220;-66
2022/05/22 12:08:39;;;;;;;0.63;0.63;;;26.40;99.90;;;;;;5012343;28;20200;-66
2022/05/22 12:11:13;;;;;;;0.50;0.50;;;26.60;99.90;;;;;;5009655;28;20193;-66
2022/05/22 12:13:49;;;;;;;0.40;0.40;;;26.80;99.90;;;;;;5011117;28;20223;-66
2022/05/22 12:16:20;;;;;;;0.40;0.40;;;26.80;99.90;;;;;;5008828;28;20296;-67
2022/05/22 12:18:59;;;;;;;0.60;0.60;;;26.70;99.90;;;;;;5015332;28;20205;-66
2022/05/22 12:21:37;;;;;;;0.60;0.60;;;26.70;99.90;;;;;;5014392;28;20210;-66
2022/05/22 12:24:14;;;;;;;0.60;0.60;;;26.70;99.90;;;;;;5010012;28;20225;-67
2022/05/22 12:26:43;;;;;;;0.50;0.50;;;26.90;99.90;;;;;;5012038;28;20240;-67
2022/05/22 12:29:14;;;;;;;0.70;0.70;;;26.90;99.90;;;;;;5014468;28;20201;-65
2022/05/22 12:31:48;;;;;;;0.50;0.50;;;27.00;99.90;;;;;;5010640;28;20293;-66
2022/05/22 12:34:20;;;;;;;0.50;0.50;;;26.90;99.90;;;;;;5011002;28;20217;-66
2022/05/22 12:36:52;;;;;;;0.50;0.50;;;26.80;99.90;;;;;;5009854;28;20203;-64
2022/05/22 12:39:19;;;;;;;0.60;0.60;;;26.60;99.90;;;;;;5015925;28;20258;-66
2022/05/22 12:41:57;;;;;;;0.40;0.40;;;26.40;99.90;;;;;;5011272;28;20201;-66
2022/05/22 12:44:28;;;;;;;0.40;0.40;;;26.30;99.90;;;;;;5012311;28;20261;-66
2022/05/22 12:46:57;;;;;;;0.75;0.75;;;26.20;99.90;;;;;;5013208;28;20248;-65
2022/05/22 12:49:26;;;;;;;0.73;0.73;;;26.20;99.90;;;;;;5011272;28;20224;-65
2022/05/22 12:52:05;;;;;;;0.70;0.70;;;26.10;99.90;;;;;;5010876;28;20201;-67
2022/05/22 12:54:34;;;;;;;0.65;0.65;;;25.80;99.90;;;;;;5011664;28;20708;-67
2022/05/22 12:57:18;;;;;;;0.60;0.60;;;25.80;99.90;;;;;;5014281;28;20307;-67
2022/05/22 12:59:57;;;;;;;0.60;0.60;;;25.70;99.90;;;;;;5014119;28;20198;-66
2022/05/22 13:02:36;;;;;;;0.68;0.68;;;25.80;99.90;;;;;;5009659;28;20200;-65
2022/05/22 13:05:12;;;;;;;0.75;0.75;;;25.80;99.90;;;;;;5010523;28;20306;-66
2022/05/22 13:07:39;;;;;;;0.68;0.68;;;25.70;99.90;;;;;;5012024;28;20288;-65
2022/05/22 13:10:22;;;;;;;0.60;0.60;;;25.80;99.90;;;;;;5010810;28;20201;-66
2022/05/22 13:12:55;;;;;;;0.45;0.45;;;25.90;99.90;;;;;;5014146;28;20225;-67
2022/05/22 13:15:27;;;;;;;0.60;0.60;;;26.00;99.90;;;;;;5013278;28;20256;-66